Time;durP1;ratioP1;P1;durP2;ratioP2;P2;SDS_P1;SDS_P2;PMS_P1;PMS_P2;Temp;Humidity;BMP_temperature;BMP_pressure;BME280_temperature;BME280_humidity;BME280_pressure;Samples;Min_cycle;Max_cycle;Signal;HPM_P1;HPM_P2
2023/03/24 00:02:01;;;;;;;5.85;2.65;;;;;;;11.92;88.24;98866.63;5073286;28;20052;-62
2023/03/24 00:04:33;;;;;;;6.63;3.25;;;;;;;11.96;89.60;98861.94;5073277;28;20052;-62
2023/03/24 00:07:02;;;;;;;7.28;3.10;;;;;;;12.01;89.00;98866.41;5071558;28;20059;-63
2023/03/24 00:09:32;;;;;;;5.72;2.35;;;;;;;12.07;88.64;98862.16;5072857;28;20493;-64
2023/03/24 00:12:00;;;;;;;5.47;2.88;;;;;;;12.11;87.80;98841.53;5072823;28;20083;-64
2023/03/24 00:14:30;;;;;;;3.78;2.67;;;;;;;12.13;88.09;98830.81;5072808;28;20048;-63
2023/03/24 00:17:00;;;;;;;5.63;2.60;;;;;;;12.14;87.01;98845.59;5072771;28;20544;-64
2023/03/24 00:19:28;;;;;;;4.15;2.65;;;;;;;12.12;87.12;98843.16;5072972;28;20052;-64
2023/03/24 00:21:55;;;;;;;4.00;2.63;;;;;;;12.14;86.94;98828.84;5072680;28;20049;-64
2023/03/24 00:24:23;;;;;;;4.68;2.50;;;;;;;12.16;86.56;98837.69;5072612;28;20508;-63
2023/03/24 00:26:51;;;;;;;5.85;2.60;;;;;;;12.21;85.61;98839.38;5073002;28;20048;-63
2023/03/24 00:29:21;;;;;;;5.97;2.70;;;;;;;12.24;86.59;98824.66;5072642;28;20059;-63
2023/03/24 00:32:08;;;;;;;4.03;2.38;;;;;;;12.30;86.41;98809.25;5072609;28;20052;-63
2023/03/24 00:34:42;;;;;;;4.00;2.28;;;;;;;12.26;85.82;98820.31;5072803;28;20048;-63
2023/03/24 00:37:18;;;;;;;5.32;2.53;;;;;;;12.30;85.85;98812.84;5072612;28;20048;-63
2023/03/24 00:39:49;;;;;;;3.55;2.30;;;;;;;12.31;85.01;98799.69;5071559;28;20048;-64
2023/03/24 00:42:17;;;;;;;3.55;2.22;;;;;;;12.33;84.98;98808.53;5072718;28;20053;-63
2023/03/24 00:44:46;;;;;;;4.93;2.67;;;;;;;12.38;85.21;98808.22;5073269;28;20044;-64
2023/03/24 00:47:16;;;;;;;2.63;1.90;;;;;;;12.41;84.30;98803.88;5072554;28;20390;-63
2023/03/24 00:49:53;;;;;;;4.28;2.22;;;;;;;12.42;84.22;98800.72;5072869;28;20075;-63
2023/03/24 00:52:32;;;;;;;3.75;2.20;;;;;;;12.45;83.77;98788.84;5072346;28;20049;-63
2023/03/24 00:55:09;;;;;;;;;;;;;;;12.47;83.28;98796.81;5073098;28;20382;-64
2023/03/24 00:57:39;;;;;;;2.85;1.90;;;;;;;12.45;83.20;98790.78;5072533;28;19928;-63
2023/03/24 01:00:13;;;;;;;3.25;1.92;;;;;;;12.54;83.70;98780.22;5071119;28;20055;-63
2023/03/24 01:02:42;;;;;;;2.85;1.88;;;;;;;12.62;84.22;98769.97;5072367;28;20057;-65
2023/03/24 01:05:23;;;;;;;3.17;2.30;;;;;;;12.63;83.47;98749.25;5072365;28;20056;-64
2023/03/24 01:07:51;;;;;;;3.60;1.92;;;;;;;12.61;82.28;98746.03;5072350;28;20063;-64
2023/03/24 01:10:24;;;;;;;3.77;1.93;;;;;;;12.60;82.68;98762.00;5072123;28;20060;-64
2023/03/24 01:12:53;;;;;;;4.45;1.98;;;;;;;12.74;83.31;98762.22;5072653;28;20497;-63
2023/03/24 01:15:25;;;;;;;5.40;2.70;;;;;;;12.42;85.09;98756.03;5072431;28;20048;-64
2023/03/24 01:18:00;;;;;;;4.30;2.65;;;;;;;12.07;90.42;98748.56;5074836;28;20401;-65
2023/03/24 01:20:33;;;;;;;5.20;2.80;;;;;;;12.00;91.79;98740.03;5076146;28;20059;-64
2023/03/24 01:23:03;;;;;;;4.55;3.00;;;;;;;12.15;92.45;98747.53;5076470;28;20044;-65
2023/03/24 01:25:32;;;;;;;5.15;2.70;;;;;;;12.27;91.60;98743.78;5076249;28;20056;-65
2023/03/24 01:28:00;;;;;;;4.18;2.80;;;;;;;12.13;92.52;98732.34;5076157;28;20060;-66
2023/03/24 01:30:29;;;;;;;5.78;2.67;;;;;;;12.15;91.58;98733.56;5075719;28;20056;-65
2023/03/24 01:32:58;;;;;;;3.35;2.58;;;;;;;12.25;89.78;98731.38;5076098;28;20060;-65
2023/03/24 01:35:27;;;;;;;5.45;2.90;;;;;;;12.36;89.01;98729.59;5075803;28;20429;-65
2023/03/24 01:37:54;;;;;;;5.22;2.75;;;;;;;12.41;89.16;98734.06;5075929;28;20057;-65
2023/03/24 01:40:28;;;;;;;3.92;3.10;;;;;;;12.43;88.26;98718.59;5075989;28;20061;-64
2023/03/24 01:42:55;;;;;;;4.03;3.00;;;;;;;12.49;88.20;98717.06;5075841;28;20052;-64
2023/03/24 01:45:47;;;;;;;3.78;2.80;;;;;;;12.55;87.90;98737.94;5075910;28;20068;-64
2023/03/24 01:48:27;;;;;;;5.40;2.90;;;;;;;12.59;87.46;98735.22;5075829;28;20063;-63
2023/03/24 01:51:05;;;;;;;5.05;2.38;;;;;;;12.61;86.99;98734.84;5075426;28;20057;-63
2023/03/24 01:53:42;;;;;;;5.78;2.53;;;;;;;12.51;86.95;98728.69;5075802;28;20404;-63
2023/03/24 01:56:11;;;;;;;5.65;3.13;;;;;;;12.42;89.19;98722.53;5075510;28;20052;-62
2023/03/24 01:58:46;;;;;;;4.75;2.40;;;;;;;12.51;89.29;98714.72;5075567;28;20056;-62
2023/03/24 02:01:14;;;;;;;4.20;3.05;;;;;;;12.58;90.01;98703.69;5075374;28;20413;-62
2023/03/24 02:03:44;;;;;;;2.90;2.15;;;;;;;12.58;88.53;98720.44;5075653;28;20059;-62
2023/03/24 02:06:17;;;;;;;3.38;2.60;;;;;;;12.65;87.93;98691.03;5075531;28;20405;-62
2023/03/24 02:08:52;;;;;;;4.55;2.40;;;;;;;12.63;86.79;98671.06;5075808;28;20053;-62
2023/03/24 02:11:20;;;;;;;3.45;2.65;;;;;;;12.64;86.66;98667.91;5074608;28;20056;-62
2023/03/24 02:13:51;;;;;;;3.70;2.40;;;;;;;12.66;85.57;98670.28;5075320;28;20393;-61
2023/03/24 02:16:31;;;;;;;3.33;2.00;;;;;;;12.69;86.49;98655.59;5075333;28;20057;-62
2023/03/24 02:19:46;;;;;;;3.53;2.50;;;;;;;12.69;85.54;98663.97;5075067;28;20398;-62
2023/03/24 02:22:49;;;;;;;4.30;2.30;;;;;;;12.74;85.70;98647.69;5013215;28;20053;-62
2023/03/24 02:26:02;;;;;;;3.75;2.50;;;;;;;12.82;85.56;98642.22;5058141;28;20052;-62
2023/03/24 02:28:41;;;;;;;3.95;2.70;;;;;;;12.78;84.58;98639.38;5073462;28;20421;-61
2023/03/24 02:31:36;;;;;;;3.85;2.80;;;;;;;12.78;85.26;98631.00;5074727;28;20056;-61
2023/03/24 02:34:39;;;;;;;4.45;2.88;;;;;;;12.80;85.21;98632.22;5071222;28;20056;-62
2023/03/24 02:37:37;;;;;;;5.25;3.35;;;;;;;12.75;88.31;98624.16;5074328;28;20135;-62
2023/03/24 02:40:35;;;;;;;4.60;3.55;;;;;;;12.67;88.28;98621.63;5075102;28;20044;-62
2023/03/24 02:43:29;;;;;;;4.47;2.85;;;;;;;12.69;87.51;98616.50;5074594;28;20052;-62
2023/03/24 02:46:12;;;;;;;4.00;3.15;;;;;;;12.72;87.15;98580.22;5075008;28;20496;-62
2023/03/24 02:48:50;;;;;;;7.40;3.72;;;;;;;12.77;86.89;98576.31;5074461;28;20485;-62
2023/03/24 02:51:24;;;;;;;3.72;3.08;;;;;;;12.70;86.33;98565.00;5074671;28;20055;-63
2023/03/24 02:54:00;;;;;;;4.35;3.65;;;;;;;12.78;86.92;98575.13;5074274;28;20055;-62
2023/03/24 02:56:39;;;;;;;3.85;2.75;;;;;;;12.79;86.09;98576.75;5074282;28;20052;-62
2023/03/24 02:59:10;;;;;;;4.07;3.03;;;;;;;12.84;85.46;98564.44;5074333;28;20052;-62
2023/03/24 03:01:43;;;;;;;4.60;3.00;;;;;;;12.90;84.41;98557.34;5074267;28;20044;-62
2023/03/24 03:07:05;;;;;;;5.05;3.70;;;;;;;12.97;85.38;98541.47;5069033;28;20083;-62
2023/03/24 03:12:26;;;;;;;4.80;3.35;;;;;;;13.01;84.64;98547.09;5073863;28;20044;-62
2023/03/24 03:15:04;;;;;;;4.68;2.97;;;;;;;13.03;84.43;98555.13;5074434;28;20067;-62
2023/03/24 03:17:37;;;;;;;4.30;3.13;;;;;;;13.08;83.78;98568.75;5074288;28;20048;-62
2023/03/24 03:20:10;;;;;;;4.60;3.38;;;;;;;13.06;84.01;98548.75;5074339;28;20060;-62
2023/03/24 03:22:42;;;;;;;5.07;3.55;;;;;;;13.09;84.42;98560.00;5073874;28;20053;-62
2023/03/24 03:25:14;;;;;;;3.53;2.92;;;;;;;13.11;83.37;98556.84;5074205;28;20408;-62
2023/03/24 03:27:47;;;;;;;4.32;3.22;;;;;;;13.14;83.57;98539.28;5073513;28;20516;-62
2023/03/24 03:30:21;;;;;;;3.78;3.00;;;;;;;13.12;82.66;98559.25;5074000;28;20056;-62
2023/03/24 03:32:54;;;;;;;4.28;2.78;;;;;;;13.17;81.81;98558.13;5073409;28;20052;-62
2023/03/24 03:35:28;;;;;;;3.83;2.90;;;;;;;13.17;82.38;98535.75;5074077;28;20123;-62
2023/03/24 03:38:07;;;;;;;3.42;2.80;;;;;;;13.24;81.64;98552.59;5073587;28;20079;-61
2023/03/24 03:40:40;;;;;;;3.88;2.92;;;;;;;13.31;81.92;98549.94;5073258;28;20074;-62
2023/03/24 03:43:09;;;;;;;4.93;3.17;;;;;;;13.29;82.02;98552.31;5073393;28;20508;-61
2023/03/24 03:45:37;;;;;;;3.63;2.83;;;;;;;13.36;82.20;98552.41;5073795;28;20056;-61
2023/03/24 03:48:05;;;;;;;4.53;2.47;;;;;;;13.36;81.30;98546.81;5073262;28;20063;-62
2023/03/24 03:50:33;;;;;;;3.97;2.47;;;;;;;13.35;82.07;98556.38;5073620;28;20489;-61
2023/03/24 03:53:01;;;;;;;3.92;2.70;;;;;;;13.32;82.15;98537.56;5073435;28;20044;-61
2023/03/24 03:55:29;;;;;;;4.70;2.80;;;;;;;13.34;82.55;98549.19;5073537;28;20059;-62
2023/03/24 03:57:57;;;;;;;5.47;3.00;;;;;;;13.35;82.53;98559.16;5072858;28;20048;-60
2023/03/24 04:00:29;;;;;;;5.20;3.13;;;;;;;13.38;83.66;98541.63;5073461;28;20052;-60
2023/03/24 04:03:24;;;;;;;4.15;2.83;;;;;;;13.36;81.96;98549.59;5073362;28;20063;-60
2023/03/24 04:06:00;;;;;;;4.45;2.85;;;;;;;13.37;83.26;98545.59;5072034;28;20052;-60
2023/03/24 04:08:43;;;;;;;4.75;3.03;;;;;;;13.47;83.43;98548.94;5072602;28;20048;-60
2023/03/24 04:11:33;;;;;;;3.95;2.90;;;;;;;13.50;82.25;98551.78;5072495;28;20108;-61
2023/03/24 04:14:22;;;;;;;3.50;2.80;;;;;;;13.51;81.58;98558.19;5070319;28;20397;-61
2023/03/24 04:17:05;;;;;;;4.50;2.97;;;;;;;13.51;82.19;98546.97;5039667;28;20044;-60
2023/03/24 04:19:47;;;;;;;5.13;3.10;;;;;;;13.48;81.81;98567.31;5073085;28;20405;-62
2023/03/24 04:22:27;;;;;;;3.95;3.00;;;;;;;13.51;82.58;98561.75;5073185;28;20056;-62
2023/03/24 04:25:00;;;;;;;4.72;3.60;;;;;;;13.51;82.98;98569.38;5073342;28;20286;-61
2023/03/24 04:27:38;;;;;;;4.70;3.40;;;;;;;13.40;83.28;98560.84;5072965;28;20053;-62
2023/03/24 04:30:15;;;;;;;4.40;3.22;;;;;;;13.47;83.07;98572.09;5073017;28;20059;-62
2023/03/24 04:32:49;;;;;;;5.43;3.83;;;;;;;13.48;84.41;98570.09;5072944;28;20048;-62
2023/03/24 04:35:25;;;;;;;4.40;3.55;;;;;;;13.45;84.17;98585.66;5072546;28;20048;-62
2023/03/24 04:37:53;;;;;;;4.68;3.47;;;;;;;13.36;84.36;98565.59;5072929;28;20413;-62
2023/03/24 04:40:22;;;;;;;5.50;4.00;;;;;;;13.30;83.80;98565.09;5073108;28;20493;-62
2023/03/24 04:42:53;;;;;;;4.53;3.65;;;;;;;13.27;84.58;98560.25;5072796;28;20501;-62
2023/03/24 04:45:24;;;;;;;6.25;4.55;;;;;;;13.30;86.22;98570.69;5072892;28;20052;-62
2023/03/24 04:47:58;;;;;;;5.53;4.20;;;;;;;13.32;85.83;98579.50;5072760;28;20056;-62
2023/03/24 04:50:30;;;;;;;5.57;4.03;;;;;;;13.26;84.96;98578.19;5072953;28;20060;-62
2023/03/24 04:52:59;;;;;;;5.75;4.45;;;;;;;13.06;87.44;98571.94;5075194;28;20060;-62
2023/03/24 04:55:52;;;;;;;7.18;5.28;;;;;;;13.11;87.32;98585.59;5076824;28;20061;-62
2023/03/24 04:58:22;;;;;;;6.93;6.07;;;;;;;13.14;88.26;98589.59;5076656;28;20057;-62
2023/03/24 05:00:50;;;;;;;;;;;;;;;13.14;87.27;98595.19;5077303;28;20417;-62
2023/03/24 05:03:19;;;;;;;12.85;6.60;;;;;;;12.99;90.29;98606.16;5077148;28;20384;-62
2023/03/24 05:05:51;;;;;;;13.23;7.57;;;;;;;12.74;92.28;98621.75;5076313;28;20057;-62
2023/03/24 05:08:20;;;;;;;8.70;7.90;;;;;;;12.71;94.04;98628.09;5076607;28;20069;-62
2023/03/24 05:10:48;;;;;;;8.95;6.93;;;;;;;12.72;94.73;98629.69;5075950;28;20056;-62
2023/03/24 05:13:15;;;;;;;8.43;6.95;;;;;;;12.70;93.82;98623.66;5076276;28;20052;-63
2023/03/24 05:15:43;;;;;;;9.07;7.60;;;;;;;12.70;95.60;98630.06;5076183;28;20390;-62
2023/03/24 05:18:10;;;;;;;9.88;5.70;;;;;;;12.66;96.00;98642.34;5076468;28;20055;-62
2023/03/24 05:20:40;;;;;;;5.97;4.68;;;;;;;12.54;95.60;98658.13;5076481;28;20478;-63
2023/03/24 05:23:07;;;;;;;4.75;3.40;;;;;;;12.48;94.16;98662.41;5076441;28;20055;-63
2023/03/24 05:25:46;;;;;;;4.80;3.85;;;;;;;12.58;94.30;98674.97;5076504;28;20053;-63
2023/03/24 05:28:14;;;;;;;10.23;4.53;;;;;;;12.74;93.08;98670.03;5076254;28;20071;-63
2023/03/24 05:30:44;;;;;;;4.90;4.13;;;;;;;12.84;92.13;98671.41;5075879;28;20052;-63
2023/03/24 05:33:12;;;;;;;5.93;4.80;;;;;;;12.90;91.29;98681.09;5075963;28;20044;-63
2023/03/24 05:35:41;;;;;;;7.05;4.65;;;;;;;12.89;90.09;98676.69;5076531;28;20056;-63
2023/03/24 05:38:09;;;;;;;5.25;4.53;;;;;;;12.92;88.95;98681.53;5075915;28;20055;-64
2023/03/24 05:40:39;;;;;;;5.07;4.50;;;;;;;12.95;88.37;98688.34;5076309;28;20056;-63
2023/03/24 05:43:07;;;;;;;;;;;;;;;13.00;88.91;98696.44;5076324;28;20053;-63
2023/03/24 05:45:34;;;;;;;6.70;4.82;;;;;;;12.94;88.19;98709.91;5075931;28;20392;-63
2023/03/24 05:48:07;;;;;;;6.70;5.15;;;;;;;12.96;88.07;98707.53;5075669;28;20087;-63
2023/03/24 05:50:35;;;;;;;5.70;5.10;;;;;;;12.99;88.17;98717.97;5075703;28;20413;-63
2023/03/24 05:53:04;;;;;;;4.40;2.97;;;;;;;12.97;86.64;98734.28;5075655;28;20494;-63
2023/03/24 05:55:32;;;;;;;4.97;3.40;;;;;;;13.03;86.57;98743.19;5075494;28;20056;-63
2023/03/24 05:58:03;;;;;;;4.95;3.05;;;;;;;12.98;86.34;98746.31;5075561;28;20064;-63
2023/03/24 06:00:32;;;;;;;6.75;4.18;;;;;;;12.94;85.20;98746.22;5075462;28;20044;-63
2023/03/24 06:03:00;;;;;;;4.28;3.00;;;;;;;12.96;85.68;98743.06;5075404;28;20401;-66
2023/03/24 06:05:28;;;;;;;4.70;2.75;;;;;;;12.93;85.41;98749.38;5075743;28;20056;-63
2023/03/24 06:07:57;;;;;;;4.25;2.50;;;;;;;12.85;85.30;98761.63;5075328;28;20071;-63
2023/03/24 06:10:27;;;;;;;3.90;2.53;;;;;;;12.90;84.15;98759.34;5075493;28;20486;-63
2023/03/24 06:12:55;;;;;;;4.05;2.40;;;;;;;12.93;83.79;98766.16;5075103;28;20048;-63
2023/03/24 06:15:26;;;;;;;5.07;2.50;;;;;;;13.02;82.09;98768.69;5075623;28;20056;-63
2023/03/24 06:17:54;;;;;;;5.95;2.42;;;;;;;13.10;80.21;98770.44;5075212;28;20060;-63
2023/03/24 06:20:22;;;;;;;3.70;2.20;;;;;;;13.21;79.03;98779.84;5075248;28;20052;-63
2023/03/24 06:22:57;;;;;;;4.20;2.30;;;;;;;13.13;78.04;98792.88;5075217;28;20051;-63
2023/03/24 06:25:28;;;;;;;4.50;2.40;;;;;;;13.19;77.19;98805.38;5074947;28;20056;-62
2023/03/24 06:28:04;;;;;;;4.70;2.85;;;;;;;13.09;76.87;98799.59;5075085;28;20049;-62
2023/03/24 06:31:04;;;;;;;5.20;3.05;;;;;;;13.08;76.28;98818.34;5074744;28;20481;-62
2023/03/24 06:33:34;;;;;;;;;;;;;;;13.12;76.67;98821.19;5075449;28;20049;-62
2023/03/24 06:36:03;;;;;;;3.67;2.67;;;;;;;13.24;76.90;98811.81;5075009;28;19920;-62
2023/03/24 06:38:30;;;;;;;3.47;2.60;;;;;;;13.24;77.41;98795.84;5074684;28;20063;-61
2023/03/24 06:41:04;;;;;;;4.78;2.65;;;;;;;13.24;77.33;98795.84;5074563;28;20409;-61
2023/03/24 06:43:34;;;;;;;5.03;2.80;;;;;;;13.23;77.22;98808.22;5074778;28;20411;-61
2023/03/24 06:46:02;;;;;;;4.05;2.65;;;;;;;13.14;76.12;98821.63;5074908;28;20444;-61
2023/03/24 06:48:35;;;;;;;5.90;3.08;;;;;;;13.09;77.11;98833.13;5074352;28;20052;-62
2023/03/24 06:51:05;;;;;;;6.15;3.20;;;;;;;13.10;76.66;98835.56;5074500;28;20057;-61
2023/03/24 06:53:33;;;;;;;4.90;2.70;;;;;;;13.20;76.65;98836.91;5074153;28;20049;-61
2023/03/24 06:56:06;;;;;;;3.35;2.58;;;;;;;13.34;76.54;98837.19;5074641;28;20056;-62
2023/03/24 06:58:34;;;;;;;3.78;1.80;;;;;;;13.54;73.90;98843.53;5073814;28;20048;-61
2023/03/24 07:01:03;;;;;;;4.72;2.25;;;;;;;13.90;73.34;98846.91;5074620;28;20429;-61
2023/03/24 07:03:30;;;;;;;4.75;2.17;;;;;;;14.41;73.24;98840.81;5073855;28;20052;-62
2023/03/24 07:05:59;;;;;;;4.40;1.80;;;;;;;14.87;72.08;98851.00;5074027;28;20052;-61
2023/03/24 07:08:27;;;;;;;4.25;2.00;;;;;;;14.51;70.57;98856.16;5074324;28;20075;-63
2023/03/24 07:10:55;;;;;;;3.17;1.50;;;;;;;14.27;68.11;98851.03;5073801;28;20056;-62
2023/03/24 07:13:26;;;;;;;3.67;1.70;;;;;;;14.35;69.92;98867.53;5074119;28;20071;-62
2023/03/24 07:15:56;;;;;;;3.67;1.55;;;;;;;14.65;69.22;98857.53;5074036;28;20048;-62
2023/03/24 07:18:25;;;;;;;;;;;;;;;14.47;66.82;98874.06;5073871;28;20493;-62
2023/03/24 07:20:52;;;;;;;4.20;1.40;;;;;;;14.52;65.84;98907.38;5074358;28;19920;-62
2023/03/24 07:23:20;;;;;;;4.40;1.50;;;;;;;14.41;66.12;98896.03;5073668;28;20056;-62
2023/03/24 07:25:47;;;;;;;5.00;1.77;;;;;;;14.38;64.50;98905.19;5073536;28;20057;-62
2023/03/24 07:28:17;;;;;;;5.35;2.00;;;;;;;15.09;64.35;98908.13;5074025;28;20056;-62
2023/03/24 07:30:46;;;;;;;7.57;2.00;;;;;;;14.93;63.79;98904.72;5073433;28;20059;-62
2023/03/24 07:33:20;;;;;;;4.68;1.77;;;;;;;15.23;63.32;98913.88;5073979;28;20052;-63
2023/03/24 07:35:48;;;;;;;4.28;1.83;;;;;;;15.06;62.19;98913.69;5073355;28;20048;-62
2023/03/24 07:38:15;;;;;;;6.60;2.28;;;;;;;15.70;63.25;98911.53;5073870;28;20048;-62
2023/03/24 07:40:43;;;;;;;6.15;1.75;;;;;;;15.90;63.01;98916.97;5073762;28;20079;-62
2023/03/24 07:43:11;;;;;;;7.32;1.95;;;;;;;16.33;62.57;98894.78;5073041;28;20493;-63
2023/03/24 07:45:39;;;;;;;6.40;1.90;;;;;;;17.01;58.58;98895.16;5073631;28;20048;-63
2023/03/24 07:48:08;;;;;;;6.50;1.92;;;;;;;17.43;59.84;98910.53;5073585;28;20059;-63
2023/03/24 07:50:36;;;;;;;5.97;1.65;;;;;;;17.31;55.27;98908.91;5073772;28;20044;-63
2023/03/24 07:53:04;;;;;;;6.25;2.00;;;;;;;18.04;57.61;98933.16;5073310;28;20053;-63
2023/03/24 07:55:33;;;;;;;6.88;1.83;;;;;;;17.55;54.15;98923.41;5073647;28;20485;-63
2023/03/24 07:58:01;;;;;;;5.03;1.60;;;;;;;17.48;55.83;98920.59;5073341;28;20049;-63
2023/03/24 08:00:29;;;;;;;6.00;1.70;;;;;;;17.43;56.14;98916.97;5073332;28;20052;-64
2023/03/24 08:03:03;;;;;;;6.22;1.80;;;;;;;16.61;55.40;98931.50;5073102;28;20052;-65
2023/03/24 08:05:37;;;;;;;6.10;1.75;;;;;;;15.79;55.60;98953.34;5073387;28;20127;-63
2023/03/24 08:08:07;;;;;;;5.70;1.70;;;;;;;15.20;57.27;98936.28;5073055;28;20057;-63
2023/03/24 08:10:38;;;;;;;4.15;1.58;;;;;;;15.77;58.30;98953.75;5072647;28;20056;-64
2023/03/24 08:13:08;;;;;;;6.30;1.85;;;;;;;17.30;55.08;98943.84;5073079;28;20075;-63
2023/03/24 08:15:36;;;;;;;7.13;2.30;;;;;;;18.93;50.95;98942.69;5073287;28;20493;-64
2023/03/24 08:18:09;;;;;;;5.47;1.90;;;;;;;18.91;53.87;98943.09;5073087;28;20401;-64
2023/03/24 08:20:39;;;;;;;6.57;1.88;;;;;;;19.62;50.22;98955.25;5072897;28;20056;-64
2023/03/24 08:23:07;;;;;;;;;;;;;;;19.91;48.60;98940.94;5073547;28;20059;-64
2023/03/24 08:25:36;;;;;;;5.20;1.80;;;;;;;20.95;50.20;98937.16;5072819;28;20293;-64
2023/03/24 08:28:06;;;;;;;6.60;2.00;;;;;;;21.03;46.91;98939.47;5072364;28;20056;-64
2023/03/24 08:30:35;;;;;;;7.25;1.92;;;;;;;20.64;46.45;98940.72;5073190;28;20489;-64
2023/03/24 08:33:06;;;;;;;6.27;1.93;;;;;;;21.41;44.69;98925.22;5072959;28;20056;-64
2023/03/24 08:35:38;;;;;;;4.80;1.67;;;;;;;20.64;45.11;98928.59;5072985;28;20056;-64
2023/03/24 08:38:08;;;;;;;4.88;1.73;;;;;;;19.59;49.12;98922.16;5072752;28;20052;-63
2023/03/24 08:40:40;;;;;;;6.78;2.00;;;;;;;18.91;50.72;98926.16;5072214;28;20072;-64
2023/03/24 08:43:23;;;;;;;7.38;2.00;;;;;;;18.24;50.01;98933.53;5072671;28;20486;-64
2023/03/24 08:45:52;;;;;;;6.57;2.00;;;;;;;17.64;52.36;98929.47;5072456;28;20057;-64
2023/03/24 08:48:23;;;;;;;6.68;1.90;;;;;;;17.72;52.87;98945.16;5072390;28;20049;-64
2023/03/24 08:50:51;;;;;;;5.32;1.85;;;;;;;17.31;51.43;98937.03;5072490;28;20059;-64
2023/03/24 08:53:37;;;;;;;4.70;1.95;;;;;;;17.49;51.18;98939.09;5072599;28;20056;-64
2023/03/24 08:56:14;;;;;;;4.13;1.73;;;;;;;18.66;50.26;98946.75;5071946;28;20060;-63
2023/03/24 08:58:50;;;;;;;6.72;2.10;;;;;;;20.52;47.27;98927.09;5072474;28;20056;-63
2023/03/24 09:01:27;;;;;;;6.70;1.98;;;;;;;21.16;43.02;98938.91;5072197;28;20059;-63
2023/03/24 09:03:58;;;;;;;4.55;1.90;;;;;;;20.30;44.05;98946.28;5072317;28;20053;-66
2023/03/24 09:06:26;;;;;;;6.82;2.35;;;;;;;19.54;46.58;98959.34;5072395;28;20053;-63
2023/03/24 09:08:56;;;;;;;8.80;2.63;;;;;;;19.85;47.33;98930.09;5072106;28;20049;-63
2023/03/24 09:11:23;;;;;;;;;;;;;;;19.98;41.88;98955.03;5072367;28;20061;-63
2023/03/24 09:13:58;;;;;;;4.95;2.30;;;;;;;19.85;45.85;98947.03;5072633;28;19931;-63
2023/03/24 09:16:31;;;;;;;9.48;2.65;;;;;;;19.84;45.38;98951.09;5072714;28;20056;-62
2023/03/24 09:18:59;;;;;;;8.07;2.30;;;;;;;19.89;42.58;98946.22;5072967;28;20048;-62
2023/03/24 09:21:26;;;;;;;7.50;2.33;;;;;;;20.02;42.42;98942.47;5072963;28;20053;-62
2023/03/24 09:26:53;;;;;;;6.25;2.33;;;;;;;23.77;39.65;98942.03;5072674;28;20079;-62
2023/03/24 09:29:21;;;;;;;5.93;2.25;;;;;;;23.68;36.98;98938.94;5072330;28;20057;-62
2023/03/24 09:32:05;;;;;;;6.55;2.45;;;;;;;25.03;33.94;98938.78;5072184;28;20065;-62
2023/03/24 09:34:40;;;;;;;5.30;2.40;;;;;;;24.66;35.73;98938.19;5072226;28;20131;-62
2023/03/24 09:37:11;;;;;;;9.02;2.47;;;;;;;23.86;36.23;98949.94;5072232;28;20052;-62
2023/03/24 09:39:40;;;;;;;5.97;2.80;;;;;;;23.75;36.94;98955.88;5075955;28;20064;-62
2023/03/24 09:42:20;;;;;;;4.72;2.38;;;;;;;24.88;33.42;98950.59;5075949;28;20056;-62
2023/03/24 09:45:04;;;;;;;;;;;;;;;;;;;;;
2023/03/24 09:47:38;;;;;;;5.93;2.20;;;;;;;25.37;32.66;98946.78;5072721;28;20053;-61
2023/03/24 09:50:17;;;;;;;4.53;2.15;;;;;;;27.64;29.32;98949.22;5075668;28;20048;-60
2023/03/24 09:55:44;;;;;;;6.78;2.22;;;;;;;27.99;31.30;98962.59;5074527;28;20060;-61
2023/03/24 09:58:13;;;;;;;5.68;2.45;;;;;;;27.75;29.62;98951.66;5075329;28;20064;-62
2023/03/24 10:00:51;;;;;;;6.68;2.40;;;;;;;26.67;30.89;98955.66;5075377;28;20052;-61
2023/03/24 10:03:31;;;;;;;8.07;2.42;;;;;;;26.09;32.81;98947.41;5074625;28;20061;-61
2023/03/24 10:09:27;;;;;;;5.40;2.20;;;;;;;27.57;28.62;98957.28;5074396;28;20060;-63
2023/03/24 10:12:11;;;;;;;7.40;2.22;;;;;;;25.44;32.30;98960.81;5075165;28;20052;-62
2023/03/24 10:15:05;;;;;;;4.80;1.85;;;;;;;24.93;34.12;98963.50;5075306;28;20059;-62
2023/03/24 10:17:55;;;;;;;5.68;1.92;;;;;;;23.80;35.07;98972.41;5075340;28;20417;-62
2023/03/24 10:20:42;;;;;;;8.95;2.70;;;;;;;25.25;30.27;98970.34;5075592;28;20063;-62
2023/03/24 10:23:39;;;;;;;8.10;2.30;;;;;;;26.65;28.72;98955.34;5075417;28;20060;-62
2023/03/24 10:29:31;;;;;;;4.40;2.30;;;;;;;30.97;26.45;98966.88;5072879;28;20047;-63
2023/03/24 10:32:02;;;;;;;7.00;2.13;;;;;;;28.15;25.88;98982.38;5074986;28;20064;-62
2023/03/24 10:38:17;;;;;;;5.15;1.67;;;;;;;26.57;27.82;98985.41;5032101;28;20065;-62
2023/03/24 10:40:46;;;;;;;4.88;1.65;;;;;;;24.90;32.55;98988.00;5031401;28;20058;-62
2023/03/24 10:43:14;;;;;;;;;;;;;;;23.74;32.76;99010.31;5053456;28;20056;-62
2023/03/24 10:48:47;;;;;;;5.60;2.38;;;;;;;27.54;26.58;98994.16;5065238;28;20060;-61
2023/03/24 10:51:33;;;;;;;5.30;2.15;;;;;;;29.41;25.87;98991.34;5073888;28;20055;-62
2023/03/24 10:57:28;;;;;;;6.90;1.83;;;;;;;32.46;20.83;98979.16;5072830;28;20045;-62
2023/03/24 10:59:58;;;;;;;5.85;2.20;;;;;;;33.07;21.70;98986.28;5074217;28;20815;-61
2023/03/24 11:02:38;;;;;;;4.88;1.83;;;;;;;29.04;23.54;98989.28;5074673;28;20059;-62
2023/03/24 11:05:21;;;;;;;5.75;2.25;;;;;;;25.91;27.20;99003.00;5074268;28;20056;-62
2023/03/24 11:10:34;;;;;;;6.45;2.22;;;;;;;25.87;27.43;99008.00;5042104;28;20052;-61
2023/03/24 11:13:04;;;;;;;5.13;2.30;;;;;;;27.56;25.71;98993.69;5074375;28;20055;-61
2023/03/24 11:15:40;;;;;;;5.30;1.80;;;;;;;27.35;25.50;98981.00;5073719;28;20052;-62
2023/03/24 11:18:27;;;;;;;5.18;1.80;;;;;;;25.28;27.93;98995.09;5073839;28;20059;-62
2023/03/24 11:21:03;;;;;;;8.13;1.92;;;;;;;23.11;30.52;99017.69;5074202;28;20516;-61
2023/03/24 11:23:35;;;;;;;7.28;2.20;;;;;;;22.14;33.38;99013.66;5074297;28;20405;-61
2023/03/24 11:28:52;;;;;;;7.03;2.40;;;;;;;25.73;29.97;99017.00;5066912;28;20063;-61
2023/03/24 11:35:16;;;;;;;6.07;2.40;;;;;;;22.43;34.36;99024.59;5062544;28;20057;-61
2023/03/24 11:37:48;;;;;;;6.10;1.88;;;;;;;22.01;34.41;99024.00;5073915;28;20052;-61
2023/03/24 11:40:19;;;;;;;7.13;2.50;;;;;;;21.84;34.46;99026.66;5073392;28;20060;-61
2023/03/24 11:42:49;;;;;;;5.65;2.03;;;;;;;21.17;35.16;99028.31;5073398;28;20052;-61
2023/03/24 11:45:37;;;;;;;6.63;2.45;;;;;;;21.03;35.42;99038.53;5073784;28;20082;-62
2023/03/24 11:48:14;;;;;;;6.80;2.10;;;;;;;20.99;34.86;99040.59;5073442;28;20516;-61
2023/03/24 11:50:46;;;;;;;7.45;2.22;;;;;;;20.83;35.85;99031.88;5073557;28;20064;-61
2023/03/24 11:53:28;;;;;;;5.97;2.30;;;;;;;20.53;35.58;99027.69;5072030;28;20421;-61
2023/03/24 11:59:20;;;;;;;5.25;1.70;;;;;;;21.97;33.44;99023.25;5065644;28;20059;-61
2023/03/24 12:02:02;;;;;;;4.60;1.55;;;;;;;21.79;34.18;99020.66;5073098;28;20056;-62
2023/03/24 12:04:48;;;;;;;6.10;2.55;;;;;;;26.44;28.12;99016.81;5073437;28;20053;-62
2023/03/24 12:07:45;;;;;;;4.28;1.70;;;;;;;30.76;21.66;99023.38;5073275;28;20055;-62
2023/03/24 12:10:27;;;;;;;4.53;1.45;;;;;;;26.93;24.98;99024.94;5072569;28;20048;-61
2023/03/24 12:13:22;;;;;;;4.22;1.63;;;;;;;30.60;22.39;99021.75;5073173;28;20056;-62
2023/03/24 12:16:40;;;;;;;6.95;2.30;;;;;;;32.81;19.01;99053.34;5057378;28;20061;-62
2023/03/24 12:22:48;;;;;;;4.35;1.67;;;;;;;27.18;25.54;99006.09;5067639;28;20501;-61
2023/03/24 12:25:35;;;;;;;3.92;1.65;;;;;;;32.33;20.19;99008.34;5071524;28;20057;-62
2023/03/24 12:28:41;;;;;;;4.57;1.60;;;;;;;32.54;19.17;99017.06;5073004;28;20059;-62
2023/03/24 12:31:25;;;;;;;5.10;1.90;;;;;;;34.63;17.32;99005.59;5037728;28;20048;-61
2023/03/24 12:34:21;;;;;;;4.05;1.58;;;;;;;35.58;17.52;99037.06;5072692;28;20052;-62
2023/03/24 12:37:19;;;;;;;4.40;1.80;;;;;;;35.81;16.03;98979.19;5072867;28;20049;-62
2023/03/24 12:40:02;;;;;;;7.13;1.63;;;;;;;36.33;16.14;98978.66;5072741;28;20410;-62
2023/03/24 12:45:51;;;;;;;5.30;1.48;;;;;;;30.93;20.24;98980.66;5030884;28;20434;-60
2023/03/24 12:48:41;;;;;;;4.00;1.92;;;;;;;27.60;22.95;98996.41;5072583;28;20052;-61
2023/03/24 12:51:23;;;;;;;4.03;1.73;;;;;;;29.87;21.52;98985.53;5073226;28;20061;-61
2023/03/24 12:57:12;;;;;;;4.40;1.67;;;;;;;25.07;26.08;98980.19;5070127;28;20049;-61
2023/03/24 13:00:01;;;;;;;4.38;1.75;;;;;;;24.09;28.19;98980.28;5072196;28;20056;-61
2023/03/24 13:02:53;;;;;;;5.68;1.83;;;;;;;24.19;28.00;98979.22;5072445;28;20056;-61